sensor_id;sensor_type;location;lat;lon;timestamp;P1;durP1;ratioP1;P2;durP2;ratioP2
23712;SDS011;12035;49.978;8.298;2022-10-17T00:01:10;5.32;;;2.90;;
23712;SDS011;12035;49.978;8.298;2022-10-17T00:06:08;6.38;;;3.75;;
23712;SDS011;12035;49.978;8.298;2022-10-17T00:11:10;7.53;;;3.42;;
23712;SDS011;12035;49.978;8.298;2022-10-17T00:16:13;5.13;;;2.95;;
23712;SDS011;12035;49.978;8.298;2022-10-17T00:21:14;4.28;;;3.05;;
23712;SDS011;12035;49.978;8.298;2022-10-17T00:26:13;4.28;;;2.67;;
23712;SDS011;12035;49.978;8.298;2022-10-17T00:31:12;4.30;;;3.30;;
23712;SDS011;12035;49.978;8.298;2022-10-17T00:36:11;3.75;;;2.78;;
23712;SDS011;12035;49.978;8.298;2022-10-17T00:41:11;3.42;;;2.13;;
23712;SDS011;12035;49.978;8.298;2022-10-17T00:46:15;5.35;;;3.08;;
23712;SDS011;12035;49.978;8.298;2022-10-17T00:51:12;3.42;;;2.28;;
23712;SDS011;12035;49.978;8.298;2022-10-17T00:56:11;3.83;;;2.65;;
23712;SDS011;12035;49.978;8.298;2022-10-17T01:01:08;2.92;;;2.13;;
23712;SDS011;12035;49.978;8.298;2022-10-17T01:06:07;4.75;;;2.58;;
23712;SDS011;12035;49.978;8.298;2022-10-17T01:11:06;3.10;;;2.35;;
23712;SDS011;12035;49.978;8.298;2022-10-17T01:16:15;3.30;;;2.60;;
23712;SDS011;12035;49.978;8.298;2022-10-17T01:21:30;2.75;;;2.00;;
23712;SDS011;12035;49.978;8.298;2022-10-17T01:26:51;2.97;;;2.00;;
23712;SDS011;12035;49.978;8.298;2022-10-17T01:32:24;4.65;;;2.60;;
23712;SDS011;12035;49.978;8.298;2022-10-17T01:38:02;3.00;;;2.25;;
23712;SDS011;12035;49.978;8.298;2022-10-17T01:43:05;5.53;;;1.98;;
23712;SDS011;12035;49.978;8.298;2022-10-17T01:48:10;3.40;;;1.90;;
23712;SDS011;12035;49.978;8.298;2022-10-17T01:53:13;6.93;;;2.45;;
23712;SDS011;12035;49.978;8.298;2022-10-17T01:58:15;5.90;;;2.67;;
23712;SDS011;12035;49.978;8.298;2022-10-17T02:03:19;9.18;;;3.55;;
23712;SDS011;12035;49.978;8.298;2022-10-17T02:08:24;3.67;;;2.38;;
23712;SDS011;12035;49.978;8.298;2022-10-17T02:13:25;4.38;;;2.92;;
23712;SDS011;12035;49.978;8.298;2022-10-17T02:24:06;4.85;;;3.17;;
23712;SDS011;12035;49.978;8.298;2022-10-17T02:29:15;5.85;;;2.72;;
23712;SDS011;12035;49.978;8.298;2022-10-17T02:34:20;3.58;;;2.60;;
23712;SDS011;12035;49.978;8.298;2022-10-17T02:39:22;4.47;;;2.40;;
23712;SDS011;12035;49.978;8.298;2022-10-17T02:44:22;4.00;;;2.80;;
23712;SDS011;12035;49.978;8.298;2022-10-17T02:49:22;3.30;;;2.50;;
23712;SDS011;12035;49.978;8.298;2022-10-17T02:54:23;5.00;;;3.15;;
23712;SDS011;12035;49.978;8.298;2022-10-17T02:59:28;3.60;;;2.55;;
23712;SDS011;12035;49.978;8.298;2022-10-17T03:04:29;3.63;;;2.80;;
23712;SDS011;12035;49.978;8.298;2022-10-17T03:09:26;4.53;;;2.85;;
23712;SDS011;12035;49.978;8.298;2022-10-17T03:14:23;3.83;;;2.42;;
23712;SDS011;12035;49.978;8.298;2022-10-17T03:19:20;3.33;;;2.05;;
23712;SDS011;12035;49.978;8.298;2022-10-17T03:24:19;3.25;;;2.20;;
23712;SDS011;12035;49.978;8.298;2022-10-17T03:29:16;3.35;;;1.80;;
23712;SDS011;12035;49.978;8.298;2022-10-17T03:34:13;4.95;;;2.72;;
23712;SDS011;12035;49.978;8.298;2022-10-17T03:39:10;3.58;;;2.75;;
23712;SDS011;12035;49.978;8.298;2022-10-17T03:44:10;4.95;;;2.50;;
23712;SDS011;12035;49.978;8.298;2022-10-17T03:49:08;3.15;;;2.05;;
23712;SDS011;12035;49.978;8.298;2022-10-17T03:54:05;4.80;;;3.10;;
23712;SDS011;12035;49.978;8.298;2022-10-17T03:59:03;4.30;;;2.80;;
23712;SDS011;12035;49.978;8.298;2022-10-17T04:04:02;3.45;;;2.30;;
23712;SDS011;12035;49.978;8.298;2022-10-17T04:08:59;4.47;;;2.88;;
23712;SDS011;12035;49.978;8.298;2022-10-17T04:13:57;4.97;;;2.30;;
23712;SDS011;12035;49.978;8.298;2022-10-17T04:18:54;3.15;;;2.10;;
23712;SDS011;12035;49.978;8.298;2022-10-17T04:23:55;8.15;;;3.00;;
23712;SDS011;12035;49.978;8.298;2022-10-17T04:28:55;5.90;;;2.65;;
23712;SDS011;12035;49.978;8.298;2022-10-17T04:33:52;9.40;;;3.20;;
23712;SDS011;12035;49.978;8.298;2022-10-17T04:38:49;4.10;;;2.50;;
23712;SDS011;12035;49.978;8.298;2022-10-17T04:43:48;3.70;;;2.30;;
23712;SDS011;12035;49.978;8.298;2022-10-17T04:48:45;4.50;;;2.35;;
23712;SDS011;12035;49.978;8.298;2022-10-17T04:53:43;3.90;;;2.20;;
23712;SDS011;12035;49.978;8.298;2022-10-17T04:58:41;6.93;;;2.72;;
23712;SDS011;12035;49.978;8.298;2022-10-17T05:03:41;4.43;;;2.50;;
23712;SDS011;12035;49.978;8.298;2022-10-17T05:08:39;4.18;;;2.70;;
23712;SDS011;12035;49.978;8.298;2022-10-17T05:13:37;4.38;;;2.47;;
23712;SDS011;12035;49.978;8.298;2022-10-17T05:18:34;5.50;;;3.47;;
23712;SDS011;12035;49.978;8.298;2022-10-17T05:23:33;4.05;;;2.72;;
23712;SDS011;12035;49.978;8.298;2022-10-17T05:28:30;5.32;;;3.05;;
23712;SDS011;12035;49.978;8.298;2022-10-17T05:33:27;5.78;;;3.05;;
23712;SDS011;12035;49.978;8.298;2022-10-17T05:38:25;7.00;;;2.78;;
23712;SDS011;12035;49.978;8.298;2022-10-17T05:43:24;5.70;;;2.67;;
23712;SDS011;12035;49.978;8.298;2022-10-17T05:48:22;4.35;;;2.60;;
23712;SDS011;12035;49.978;8.298;2022-10-17T05:53:20;5.22;;;2.38;;
23712;SDS011;12035;49.978;8.298;2022-10-17T05:58:17;4.30;;;3.05;;
23712;SDS011;12035;49.978;8.298;2022-10-17T06:03:15;11.43;;;3.70;;
23712;SDS011;12035;49.978;8.298;2022-10-17T06:08:13;6.80;;;3.40;;
23712;SDS011;12035;49.978;8.298;2022-10-17T06:13:11;4.97;;;3.30;;
23712;SDS011;12035;49.978;8.298;2022-10-17T06:18:12;4.97;;;2.90;;
23712;SDS011;12035;49.978;8.298;2022-10-17T06:23:12;5.15;;;2.92;;
23712;SDS011;12035;49.978;8.298;2022-10-17T06:28:09;6.25;;;3.08;;
23712;SDS011;12035;49.978;8.298;2022-10-17T06:33:07;4.75;;;2.90;;
23712;SDS011;12035;49.978;8.298;2022-10-17T06:38:04;3.42;;;2.45;;
23712;SDS011;12035;49.978;8.298;2022-10-17T06:43:03;6.47;;;3.20;;
23712;SDS011;12035;49.978;8.298;2022-10-17T06:48:01;9.10;;;3.10;;
23712;SDS011;12035;49.978;8.298;2022-10-17T06:52:59;8.13;;;3.42;;
23712;SDS011;12035;49.978;8.298;2022-10-17T06:57:56;5.85;;;2.65;;
23712;SDS011;12035;49.978;8.298;2022-10-17T07:02:55;11.43;;;2.70;;
23712;SDS011;12035;49.978;8.298;2022-10-17T07:07:53;8.10;;;2.97;;
23712;SDS011;12035;49.978;8.298;2022-10-17T07:12:50;8.50;;;3.13;;
23712;SDS011;12035;49.978;8.298;2022-10-17T07:17:49;6.47;;;2.75;;
23712;SDS011;12035;49.978;8.298;2022-10-17T07:22:48;4.60;;;2.72;;
23712;SDS011;12035;49.978;8.298;2022-10-17T07:27:45;4.75;;;2.60;;
23712;SDS011;12035;49.978;8.298;2022-10-17T07:32:45;6.38;;;2.50;;
23712;SDS011;12035;49.978;8.298;2022-10-17T07:37:42;7.00;;;2.50;;
23712;SDS011;12035;49.978;8.298;2022-10-17T07:42:57;5.97;;;2.63;;
23712;SDS011;12035;49.978;8.298;2022-10-17T07:48:08;5.35;;;2.72;;
23712;SDS011;12035;49.978;8.298;2022-10-17T07:53:05;6.40;;;2.83;;
23712;SDS011;12035;49.978;8.298;2022-10-17T07:58:04;3.97;;;2.50;;
23712;SDS011;12035;49.978;8.298;2022-10-17T08:03:01;6.35;;;2.83;;
23712;SDS011;12035;49.978;8.298;2022-10-17T08:07:58;7.50;;;3.10;;
23712;SDS011;12035;49.978;8.298;2022-10-17T08:12:57;8.25;;;2.80;;
23712;SDS011;12035;49.978;8.298;2022-10-17T08:17:55;8.35;;;2.90;;
23712;SDS011;12035;49.978;8.298;2022-10-17T08:22:53;7.93;;;2.80;;
23712;SDS011;12035;49.978;8.298;2022-10-17T08:27:51;6.75;;;3.08;;
23712;SDS011;12035;49.978;8.298;2022-10-17T08:32:48;6.78;;;3.47;;
23712;SDS011;12035;49.978;8.298;2022-10-17T08:37:47;7.43;;;3.13;;
23712;SDS011;12035;49.978;8.298;2022-10-17T08:42:49;7.90;;;3.17;;
23712;SDS011;12035;49.978;8.298;2022-10-17T08:48:12;8.63;;;3.42;;
23712;SDS011;12035;49.978;8.298;2022-10-17T08:53:16;18.05;;;4.15;;
23712;SDS011;12035;49.978;8.298;2022-10-17T08:58:19;13.35;;;3.78;;
23712;SDS011;12035;49.978;8.298;2022-10-17T09:03:24;3.78;;;2.63;;
23712;SDS011;12035;49.978;8.298;2022-10-17T09:08:51;10.35;;;3.25;;
23712;SDS011;12035;49.978;8.298;2022-10-17T09:14:26;8.07;;;3.42;;
23712;SDS011;12035;49.978;8.298;2022-10-17T09:19:52;6.65;;;2.65;;
23712;SDS011;12035;49.978;8.298;2022-10-17T09:24:58;13.10;;;3.60;;
23712;SDS011;12035;49.978;8.298;2022-10-17T09:30:01;10.93;;;3.47;;
23712;SDS011;12035;49.978;8.298;2022-10-17T09:35:21;5.75;;;2.95;;
23712;SDS011;12035;49.978;8.298;2022-10-17T09:40:23;8.05;;;3.03;;
23712;SDS011;12035;49.978;8.298;2022-10-17T09:45:29;8.70;;;2.75;;
23712;SDS011;12035;49.978;8.298;2022-10-17T09:50:38;7.57;;;3.20;;
23712;SDS011;12035;49.978;8.298;2022-10-17T09:55:39;4.40;;;2.80;;
23712;SDS011;12035;49.978;8.298;2022-10-17T10:00:40;3.70;;;2.45;;
23712;SDS011;12035;49.978;8.298;2022-10-17T10:05:39;6.07;;;2.25;;
23712;SDS011;12035;49.978;8.298;2022-10-17T10:10:40;4.97;;;2.33;;
23712;SDS011;12035;49.978;8.298;2022-10-17T10:15:38;9.63;;;2.25;;
23712;SDS011;12035;49.978;8.298;2022-10-17T10:20:39;8.15;;;1.92;;
23712;SDS011;12035;49.978;8.298;2022-10-17T10:25:50;4.97;;;2.00;;
23712;SDS011;12035;49.978;8.298;2022-10-17T10:30:52;3.58;;;1.50;;
23712;SDS011;12035;49.978;8.298;2022-10-17T10:35:55;4.38;;;2.00;;
23712;SDS011;12035;49.978;8.298;2022-10-17T10:41:00;3.42;;;1.67;;
23712;SDS011;12035;49.978;8.298;2022-10-17T10:46:00;4.80;;;1.67;;
23712;SDS011;12035;49.978;8.298;2022-10-17T10:51:01;6.72;;;1.60;;
23712;SDS011;12035;49.978;8.298;2022-10-17T10:56:07;2.95;;;1.38;;
23712;SDS011;12035;49.978;8.298;2022-10-17T11:01:12;2.42;;;1.45;;
23712;SDS011;12035;49.978;8.298;2022-10-17T11:06:18;3.35;;;1.70;;
23712;SDS011;12035;49.978;8.298;2022-10-17T11:11:24;2.58;;;1.55;;
23712;SDS011;12035;49.978;8.298;2022-10-17T11:16:28;5.40;;;1.80;;
23712;SDS011;12035;49.978;8.298;2022-10-17T11:21:36;5.57;;;1.90;;
23712;SDS011;12035;49.978;8.298;2022-10-17T11:26:45;4.90;;;2.00;;
23712;SDS011;12035;49.978;8.298;2022-10-17T11:31:50;3.35;;;1.58;;
23712;SDS011;12035;49.978;8.298;2022-10-17T11:36:51;3.60;;;1.85;;
23712;SDS011;12035;49.978;8.298;2022-10-17T11:41:56;3.70;;;1.80;;
23712;SDS011;12035;49.978;8.298;2022-10-17T11:47:03;6.82;;;1.48;;
23712;SDS011;12035;49.978;8.298;2022-10-17T11:52:22;5.10;;;1.40;;
23712;SDS011;12035;49.978;8.298;2022-10-17T11:57:37;4.75;;;1.20;;
23712;SDS011;12035;49.978;8.298;2022-10-17T12:02:49;3.20;;;1.30;;
23712;SDS011;12035;49.978;8.298;2022-10-17T12:08:00;5.97;;;1.50;;
23712;SDS011;12035;49.978;8.298;2022-10-17T12:18:43;3.17;;;1.40;;
23712;SDS011;12035;49.978;8.298;2022-10-17T12:23:42;2.65;;;1.50;;
23712;SDS011;12035;49.978;8.298;2022-10-17T12:28:49;3.70;;;1.48;;
23712;SDS011;12035;49.978;8.298;2022-10-17T12:33:47;3.25;;;1.35;;
23712;SDS011;12035;49.978;8.298;2022-10-17T12:38:47;3.42;;;1.30;;
23712;SDS011;12035;49.978;8.298;2022-10-17T12:43:48;3.90;;;1.48;;
23712;SDS011;12035;49.978;8.298;2022-10-17T12:49:02;4.75;;;1.45;;
23712;SDS011;12035;49.978;8.298;2022-10-17T12:54:00;4.30;;;1.67;;
23712;SDS011;12035;49.978;8.298;2022-10-17T12:59:17;3.60;;;1.70;;
23712;SDS011;12035;49.978;8.298;2022-10-17T13:04:19;5.78;;;1.80;;
23712;SDS011;12035;49.978;8.298;2022-10-17T13:09:23;3.55;;;1.40;;
23712;SDS011;12035;49.978;8.298;2022-10-17T13:14:25;5.32;;;1.50;;
23712;SDS011;12035;49.978;8.298;2022-10-17T13:19:25;2.58;;;1.40;;
23712;SDS011;12035;49.978;8.298;2022-10-17T13:24:27;2.75;;;1.50;;
23712;SDS011;12035;49.978;8.298;2022-10-17T13:29:38;5.05;;;1.55;;
23712;SDS011;12035;49.978;8.298;2022-10-17T13:34:40;3.05;;;1.70;;
23712;SDS011;12035;49.978;8.298;2022-10-17T13:39:38;4.13;;;1.60;;
23712;SDS011;12035;49.978;8.298;2022-10-17T13:44:39;2.38;;;1.60;;
23712;SDS011;12035;49.978;8.298;2022-10-17T13:49:38;3.08;;;1.33;;
23712;SDS011;12035;49.978;8.298;2022-10-17T13:54:37;4.10;;;1.60;;
23712;SDS011;12035;49.978;8.298;2022-10-17T13:59:37;4.53;;;1.45;;
23712;SDS011;12035;49.978;8.298;2022-10-17T14:04:37;3.42;;;1.80;;
23712;SDS011;12035;49.978;8.298;2022-10-17T14:09:34;4.28;;;1.70;;
23712;SDS011;12035;49.978;8.298;2022-10-17T14:14:32;3.85;;;1.70;;
23712;SDS011;12035;49.978;8.298;2022-10-17T14:19:31;4.13;;;1.50;;
23712;SDS011;12035;49.978;8.298;2022-10-17T14:24:32;4.50;;;1.83;;
23712;SDS011;12035;49.978;8.298;2022-10-17T14:34:52;5.55;;;1.70;;
23712;SDS011;12035;49.978;8.298;2022-10-17T14:39:51;4.95;;;1.60;;
23712;SDS011;12035;49.978;8.298;2022-10-17T14:44:49;7.30;;;1.60;;
23712;SDS011;12035;49.978;8.298;2022-10-17T14:49:50;3.30;;;1.77;;
23712;SDS011;12035;49.978;8.298;2022-10-17T14:55:11;4.57;;;1.70;;
23712;SDS011;12035;49.978;8.298;2022-10-17T15:00:20;4.55;;;1.65;;
23712;SDS011;12035;49.978;8.298;2022-10-17T15:05:19;4.97;;;1.85;;
23712;SDS011;12035;49.978;8.298;2022-10-17T15:10:27;5.75;;;1.77;;
23712;SDS011;12035;49.978;8.298;2022-10-17T15:15:29;4.15;;;1.40;;
23712;SDS011;12035;49.978;8.298;2022-10-17T15:20:29;3.72;;;1.65;;
23712;SDS011;12035;49.978;8.298;2022-10-17T15:25:29;2.38;;;1.33;;
23712;SDS011;12035;49.978;8.298;2022-10-17T15:30:28;4.38;;;1.48;;
23712;SDS011;12035;49.978;8.298;2022-10-17T15:35:36;6.68;;;1.70;;
23712;SDS011;12035;49.978;8.298;2022-10-17T15:40:37;7.65;;;2.10;;
23712;SDS011;12035;49.978;8.298;2022-10-17T15:45:42;4.13;;;1.70;;
23712;SDS011;12035;49.978;8.298;2022-10-17T15:50:43;5.30;;;1.70;;
23712;SDS011;12035;49.978;8.298;2022-10-17T15:55:41;5.60;;;1.70;;
23712;SDS011;12035;49.978;8.298;2022-10-17T16:00:39;4.00;;;1.65;;
23712;SDS011;12035;49.978;8.298;2022-10-17T16:05:36;2.92;;;1.38;;
23712;SDS011;12035;49.978;8.298;2022-10-17T16:10:38;4.47;;;1.70;;
23712;SDS011;12035;49.978;8.298;2022-10-17T16:15:36;8.02;;;1.70;;
23712;SDS011;12035;49.978;8.298;2022-10-17T16:20:33;4.22;;;1.92;;
23712;SDS011;12035;49.978;8.298;2022-10-17T16:25:31;6.68;;;2.08;;
23712;SDS011;12035;49.978;8.298;2022-10-17T16:30:40;4.28;;;1.80;;
23712;SDS011;12035;49.978;8.298;2022-10-17T16:35:40;6.40;;;2.00;;
23712;SDS011;12035;49.978;8.298;2022-10-17T16:40:37;8.32;;;2.00;;
23712;SDS011;12035;49.978;8.298;2022-10-17T16:45:36;3.80;;;2.03;;
23712;SDS011;12035;49.978;8.298;2022-10-17T16:50:36;3.53;;;1.90;;
23712;SDS011;12035;49.978;8.298;2022-10-17T16:55:35;7.32;;;3.75;;
23712;SDS011;12035;49.978;8.298;2022-10-17T17:00:51;9.48;;;4.15;;
23712;SDS011;12035;49.978;8.298;2022-10-17T17:05:48;11.60;;;6.10;;
23712;SDS011;12035;49.978;8.298;2022-10-17T17:10:46;8.98;;;3.13;;
23712;SDS011;12035;49.978;8.298;2022-10-17T17:15:46;7.22;;;2.42;;
23712;SDS011;12035;49.978;8.298;2022-10-17T17:20:49;3.67;;;2.17;;
23712;SDS011;12035;49.978;8.298;2022-10-17T17:25:46;6.55;;;2.45;;
23712;SDS011;12035;49.978;8.298;2022-10-17T17:30:44;6.13;;;2.95;;
23712;SDS011;12035;49.978;8.298;2022-10-17T17:35:41;8.05;;;4.55;;
23712;SDS011;12035;49.978;8.298;2022-10-17T17:40:44;7.07;;;2.25;;
23712;SDS011;12035;49.978;8.298;2022-10-17T17:45:41;8.10;;;3.50;;
23712;SDS011;12035;49.978;8.298;2022-10-17T17:50:38;6.15;;;3.28;;
23712;SDS011;12035;49.978;8.298;2022-10-17T17:55:40;6.10;;;3.05;;
23712;SDS011;12035;49.978;8.298;2022-10-17T18:00:39;8.65;;;3.20;;
23712;SDS011;12035;49.978;8.298;2022-10-17T18:05:38;5.75;;;2.83;;
23712;SDS011;12035;49.978;8.298;2022-10-17T18:10:35;4.57;;;2.20;;
23712;SDS011;12035;49.978;8.298;2022-10-17T18:15:33;5.30;;;3.05;;
23712;SDS011;12035;49.978;8.298;2022-10-17T18:20:31;4.25;;;2.15;;
23712;SDS011;12035;49.978;8.298;2022-10-17T18:25:30;5.93;;;2.65;;
23712;SDS011;12035;49.978;8.298;2022-10-17T18:30:27;6.60;;;2.55;;
23712;SDS011;12035;49.978;8.298;2022-10-17T18:35:26;8.70;;;4.18;;
23712;SDS011;12035;49.978;8.298;2022-10-17T18:40:28;7.50;;;3.50;;
23712;SDS011;12035;49.978;8.298;2022-10-17T18:45:31;6.57;;;2.65;;
23712;SDS011;12035;49.978;8.298;2022-10-17T18:50:37;4.55;;;2.67;;
23712;SDS011;12035;49.978;8.298;2022-10-17T18:55:46;5.27;;;3.17;;
23712;SDS011;12035;49.978;8.298;2022-10-17T19:00:45;7.68;;;4.40;;
23712;SDS011;12035;49.978;8.298;2022-10-17T19:05:48;7.45;;;3.97;;
23712;SDS011;12035;49.978;8.298;2022-10-17T19:10:47;6.30;;;3.33;;
23712;SDS011;12035;49.978;8.298;2022-10-17T19:15:47;5.78;;;3.28;;
23712;SDS011;12035;49.978;8.298;2022-10-17T19:20:44;7.60;;;3.38;;
23712;SDS011;12035;49.978;8.298;2022-10-17T19:25:42;9.45;;;3.80;;
23712;SDS011;12035;49.978;8.298;2022-10-17T19:30:41;8.70;;;3.30;;
23712;SDS011;12035;49.978;8.298;2022-10-17T19:35:38;5.88;;;3.40;;
23712;SDS011;12035;49.978;8.298;2022-10-17T19:40:38;5.93;;;3.60;;
23712;SDS011;12035;49.978;8.298;2022-10-17T19:45:36;9.48;;;3.10;;
23712;SDS011;12035;49.978;8.298;2022-10-17T19:50:34;8.93;;;3.40;;
23712;SDS011;12035;49.978;8.298;2022-10-17T19:55:31;9.05;;;3.50;;
23712;SDS011;12035;49.978;8.298;2022-10-17T20:00:28;7.32;;;3.13;;
23712;SDS011;12035;49.978;8.298;2022-10-17T20:05:26;6.88;;;2.83;;
23712;SDS011;12035;49.978;8.298;2022-10-17T20:10:25;6.22;;;3.17;;
23712;SDS011;12035;49.978;8.298;2022-10-17T20:15:22;6.43;;;3.38;;
23712;SDS011;12035;49.978;8.298;2022-10-17T20:20:19;8.57;;;3.70;;
23712;SDS011;12035;49.978;8.298;2022-10-17T20:25:16;9.05;;;3.63;;
23712;SDS011;12035;49.978;8.298;2022-10-17T20:30:15;7.15;;;3.65;;
23712;SDS011;12035;49.978;8.298;2022-10-17T20:35:19;9.65;;;3.45;;
23712;SDS011;12035;49.978;8.298;2022-10-17T20:40:20;5.60;;;3.15;;
23712;SDS011;12035;49.978;8.298;2022-10-17T20:45:18;5.63;;;3.08;;
23712;SDS011;12035;49.978;8.298;2022-10-17T20:50:16;6.10;;;3.40;;
23712;SDS011;12035;49.978;8.298;2022-10-17T20:55:14;6.88;;;3.25;;
23712;SDS011;12035;49.978;8.298;2022-10-17T21:00:12;6.68;;;3.53;;
23712;SDS011;12035;49.978;8.298;2022-10-17T21:05:12;6.97;;;3.40;;
23712;SDS011;12035;49.978;8.298;2022-10-17T21:10:09;8.48;;;4.53;;
23712;SDS011;12035;49.978;8.298;2022-10-17T21:15:07;7.93;;;3.17;;
23712;SDS011;12035;49.978;8.298;2022-10-17T21:20:05;6.93;;;3.33;;
23712;SDS011;12035;49.978;8.298;2022-10-17T21:25:05;8.68;;;4.65;;
23712;SDS011;12035;49.978;8.298;2022-10-17T21:30:04;9.02;;;4.35;;
23712;SDS011;12035;49.978;8.298;2022-10-17T21:35:02;7.70;;;3.80;;
23712;SDS011;12035;49.978;8.298;2022-10-17T21:40:00;10.18;;;3.33;;
23712;SDS011;12035;49.978;8.298;2022-10-17T21:44:59;7.55;;;3.47;;
23712;SDS011;12035;49.978;8.298;2022-10-17T21:49:56;8.57;;;3.80;;
23712;SDS011;12035;49.978;8.298;2022-10-17T21:54:53;9.07;;;3.75;;
23712;SDS011;12035;49.978;8.298;2022-10-17T21:59:50;6.65;;;3.10;;
23712;SDS011;12035;49.978;8.298;2022-10-17T22:04:49;8.20;;;3.35;;
23712;SDS011;12035;49.978;8.298;2022-10-17T22:09:46;11.85;;;4.38;;
23712;SDS011;12035;49.978;8.298;2022-10-17T22:14:43;9.32;;;3.22;;
23712;SDS011;12035;49.978;8.298;2022-10-17T22:19:40;5.70;;;3.28;;
23712;SDS011;12035;49.978;8.298;2022-10-17T22:24:39;7.55;;;3.15;;
23712;SDS011;12035;49.978;8.298;2022-10-17T22:29:36;8.65;;;3.72;;
23712;SDS011;12035;49.978;8.298;2022-10-17T22:34:33;7.20;;;3.17;;
23712;SDS011;12035;49.978;8.298;2022-10-17T22:39:30;7.00;;;3.42;;
23712;SDS011;12035;49.978;8.298;2022-10-17T22:44:29;7.25;;;3.33;;
23712;SDS011;12035;49.978;8.298;2022-10-17T22:49:27;6.85;;;3.30;;
23712;SDS011;12035;49.978;8.298;2022-10-17T22:54:24;7.15;;;2.83;;
23712;SDS011;12035;49.978;8.298;2022-10-17T22:59:30;8.43;;;3.20;;
23712;SDS011;12035;49.978;8.298;2022-10-17T23:04:27;10.48;;;3.50;;
23712;SDS011;12035;49.978;8.298;2022-10-17T23:09:24;6.28;;;3.03;;
23712;SDS011;12035;49.978;8.298;2022-10-17T23:14:21;8.10;;;3.53;;
23712;SDS011;12035;49.978;8.298;2022-10-17T23:19:20;8.15;;;3.58;;
23712;SDS011;12035;49.978;8.298;2022-10-17T23:24:17;6.28;;;3.67;;
23712;SDS011;12035;49.978;8.298;2022-10-17T23:29:14;4.82;;;2.95;;
23712;SDS011;12035;49.978;8.298;2022-10-17T23:34:11;5.20;;;3.50;;
23712;SDS011;12035;49.978;8.298;2022-10-17T23:39:10;5.47;;;2.70;;
23712;SDS011;12035;49.978;8.298;2022-10-17T23:44:08;6.93;;;2.88;;
23712;SDS011;12035;49.978;8.298;2022-10-17T23:49:05;4.70;;;3.25;;
23712;SDS011;12035;49.978;8.298;2022-10-17T23:54:03;6.13;;;2.65;;
23712;SDS011;12035;49.978;8.298;2022-10-17T23:59:01;8.30;;;3.88;;
